Time;durP1;ratioP1;P1;durP2;ratioP2;P2;SDS_P1;SDS_P2;PMS_P1;PMS_P2;Temp;Humidity;BMP_temperature;BMP_pressure;BME280_temperature;BME280_humidity;BME280_pressure;Samples;Min_cycle;Max_cycle;Signal;HPM_P1;HPM_P2
2022/04/11 00:00:12;;;;;;;5.43;2.63;;;;;;;3.17;89.01;94195.28;5018937;28;20571;-74
2022/04/11 00:02:38;;;;;;;8.75;2.60;;;;;;;3.17;88.80;94189.13;5023985;28;20255;-74
2022/04/11 00:05:06;;;;;;;4.72;3.05;;;;;;;3.13;89.08;94199.66;5021875;28;20201;-73
2022/04/11 00:07:33;;;;;;;4.40;3.00;;;;;;;3.23;88.59;94204.03;5016521;28;20226;-75
2022/04/11 00:10:00;;;;;;;6.32;3.85;;;;;;;3.20;88.90;94200.06;5019002;28;20201;-73
2022/04/11 00:12:34;;;;;;;7.90;3.92;;;;;;;3.19;87.97;94200.34;5025102;28;20232;-74
2022/04/11 00:15:01;;;;;;;8.80;4.55;;;;;;;3.28;87.91;94195.16;5026966;28;20287;-74
2022/04/11 00:17:28;;;;;;;6.60;3.28;;;;;;;3.30;87.19;94204.44;5014261;28;20696;-75
2022/04/11 00:19:55;;;;;;;4.25;2.83;;;;;;;3.26;86.75;94200.78;5026422;28;20208;-75
2022/04/11 00:22:21;;;;;;;8.15;2.75;;;;;;;3.34;86.50;94213.50;5020443;28;20208;-76
2022/04/11 00:24:50;;;;;;;3.00;2.25;;;;;;;3.33;86.33;94209.22;5033486;28;20223;-75
2022/04/11 00:27:17;;;;;;;5.45;2.80;;;;;;;3.38;86.49;94225.22;5014006;28;20200;-75
2022/04/11 00:29:45;;;;;;;5.03;3.05;;;;;;;3.44;85.81;94224.03;5026945;28;20570;-75
2022/04/11 00:32:12;;;;;;;5.82;2.72;;;;;;;3.53;85.08;94227.66;5021437;28;20630;-75
2022/04/11 00:34:39;;;;;;;5.55;3.17;;;;;;;3.48;84.71;94222.38;5020395;28;20201;-75
2022/04/11 00:37:05;;;;;;;5.25;2.72;;;;;;;3.52;84.57;94228.72;5025131;28;20232;-75
2022/04/11 00:39:33;;;;;;;3.92;2.40;;;;;;;3.53;83.99;94230.31;5027288;28;20623;-75
2022/04/11 00:42:08;;;;;;;3.83;2.38;;;;;;;3.63;83.25;94241.94;5021614;28;20196;-75
2022/04/11 00:44:35;;;;;;;4.50;2.67;;;;;;;3.65;83.58;94242.47;5020753;28;20698;-75
2022/04/11 00:47:04;;;;;;;2.55;2.25;;;;;;;3.73;83.55;94250.59;5033244;28;20211;-76
2022/04/11 00:49:31;;;;;;;4.45;2.30;;;;;;;3.72;82.91;94243.66;5020049;28;20215;-75
2022/04/11 00:51:58;;;;;;;3.72;2.28;;;;;;;3.68;82.65;94248.03;5022674;28;20208;-74
2022/04/11 00:54:28;;;;;;;3.40;2.47;;;;;;;3.74;82.64;94251.41;5027015;28;20208;-74
2022/04/11 00:56:56;;;;;;;4.40;2.92;;;;;;;3.83;81.73;94261.13;5024557;28;20232;-76
2022/04/11 00:59:25;;;;;;;5.43;3.03;;;;;;;3.78;82.31;94255.09;5028254;28;20208;-75
2022/04/11 01:01:52;;;;;;;6.22;2.95;;;;;;;3.82;80.82;94270.28;5024581;28;20208;-73
2022/04/11 01:04:27;;;;;;;2.65;1.80;;;;;;;3.86;80.90;94275.84;5019491;28;20204;-75
2022/04/11 01:06:54;;;;;;;3.72;2.00;;;;;;;3.86;80.81;94267.78;5019373;28;20291;-74
2022/04/11 01:09:21;;;;;;;4.43;3.05;;;;;;;3.87;80.86;94278.22;5025951;28;20201;-75
2022/04/11 01:11:48;;;;;;;4.63;1.95;;;;;;;3.88;80.33;94284.38;5026239;28;20195;-74
2022/04/11 01:14:15;;;;;;;2.83;2.25;;;;;;;3.93;78.88;94286.97;5019861;28;20208;-74
2022/04/11 01:16:47;;;;;;;3.92;2.17;;;;;;;4.01;78.20;94286.28;5018727;28;20664;-73
2022/04/11 01:19:14;;;;;;;3.40;2.40;;;;;;;4.07;77.66;94298.53;5024890;28;20396;-75
2022/04/11 01:21:43;;;;;;;2.92;1.80;;;;;;;4.07;77.55;94308.44;5025274;28;20231;-75
2022/04/11 01:24:10;;;;;;;3.33;2.38;;;;;;;4.15;77.93;94305.88;5012981;28;20201;-75
2022/04/11 01:26:37;;;;;;;5.88;2.80;;;;;;;4.13;77.76;94310.72;5026286;28;20252;-75
2022/04/11 01:29:05;;;;;;;4.32;1.52;;;;;;;4.04;78.29;94304.47;5021238;28;20694;-74
2022/04/11 01:31:31;;;;;;;5.60;2.33;;;;;;;4.06;78.90;94312.22;5018668;28;20264;-76
2022/04/11 01:33:58;;;;;;;3.22;2.05;;;;;;;4.02;78.64;94311.19;5023665;28;20204;-75
2022/04/11 01:36:25;;;;;;;3.35;1.80;;;;;;;4.06;78.89;94318.38;5025597;28;20204;-75
2022/04/11 01:38:53;;;;;;;3.88;1.85;;;;;;;4.01;78.68;94314.97;5021212;28;20243;-75
2022/04/11 01:41:20;;;;;;;3.33;2.28;;;;;;;4.02;78.28;94321.91;5019007;28;20212;-76
2022/04/11 01:43:48;;;;;;;5.97;2.15;;;;;;;3.98;78.63;94328.94;5022728;28;20722;-75
2022/04/11 01:46:15;;;;;;;6.00;3.40;;;;;;;4.03;76.57;94327.00;5025777;28;20280;-76
2022/04/11 01:48:42;;;;;;;3.83;1.85;;;;;;;4.06;77.47;94334.44;5023219;28;20208;-78
2022/04/11 01:51:09;;;;;;;5.45;2.15;;;;;;;4.09;77.23;94339.22;5015309;28;20227;-75
2022/04/11 01:53:36;;;;;;;2.28;1.73;;;;;;;4.10;77.48;94340.78;5022396;28;20207;-77
2022/04/11 01:56:05;;;;;;;3.75;1.77;;;;;;;4.07;77.95;94341.41;5018887;28;20274;-76
2022/04/11 01:58:32;;;;;;;6.03;2.20;;;;;;;4.05;78.38;94358.84;5020903;28;20235;-78
2022/04/11 02:00:59;;;;;;;1.42;1.33;;;;;;;4.11;77.27;94361.16;5029955;28;20690;-77
2022/04/11 02:03:26;;;;;;;5.18;2.40;;;;;;;4.06;77.71;94361.25;5020153;28;20301;-75
2022/04/11 02:05:54;;;;;;;3.22;2.38;;;;;;;4.03;77.76;94372.53;5025410;28;20744;-76
2022/04/11 02:08:21;;;;;;;4.35;1.98;;;;;;;4.06;77.12;94371.97;5023613;28;20200;-77
2022/04/11 02:10:48;;;;;;;4.82;2.35;;;;;;;4.07;77.94;94368.19;5017900;28;20687;-75
2022/04/11 02:13:16;;;;;;;3.40;2.38;;;;;;;4.10;77.40;94375.63;5019740;28;20208;-76
2022/04/11 02:15:43;;;;;;;3.30;2.05;;;;;;;4.07;77.22;94384.28;5025299;28;20720;-78
2022/04/11 02:18:10;;;;;;;3.83;2.17;;;;;;;4.06;77.83;94387.25;5024749;28;20239;-77
2022/04/11 02:20:37;;;;;;;7.93;1.77;;;;;;;4.03;77.18;94391.31;5018134;28;20196;-74
2022/04/11 02:23:04;;;;;;;3.35;2.00;;;;;;;4.05;78.16;94402.53;5018536;28;20221;-74
2022/04/11 02:25:34;;;;;;;3.50;2.10;;;;;;;3.92;78.03;94411.31;5019211;28;20211;-77
2022/04/11 02:28:01;;;;;;;3.15;1.60;;;;;;;3.86;78.63;94409.78;5017693;28;20205;-76
2022/04/11 02:30:30;;;;;;;4.05;3.22;;;;;;;3.88;78.55;94407.63;5019171;28;20225;-78
2022/04/11 02:32:57;;;;;;;2.20;1.35;;;;;;;3.79;77.82;94414.72;5017918;28;20661;-74
2022/04/11 02:35:24;;;;;;;3.28;1.95;;;;;;;3.75;78.71;94409.13;5022810;28;20201;-77
2022/04/11 02:37:52;;;;;;;4.80;2.25;;;;;;;3.80;78.78;94427.84;5024725;28;20563;-77
2022/04/11 02:40:19;;;;;;;5.45;2.60;;;;;;;3.76;78.51;94426.00;5017920;28;20204;-75
2022/04/11 02:42:47;;;;;;;3.25;2.00;;;;;;;3.80;78.88;94432.38;5017498;28;20201;-77
2022/04/11 02:45:15;;;;;;;2.53;1.58;;;;;;;3.79;78.65;94431.59;5030739;28;20236;-79
2022/04/11 02:47:44;;;;;;;3.40;1.77;;;;;;;3.79;78.74;94441.50;5029156;28;20205;-75
2022/04/11 02:50:12;;;;;;;3.40;2.05;;;;;;;3.85;79.37;94445.69;5020426;28;20215;-78
2022/04/11 02:52:39;;;;;;;2.95;1.55;;;;;;;3.80;78.98;94448.47;5018076;28;20275;-76
2022/04/11 02:55:08;;;;;;;5.18;1.90;;;;;;;3.82;79.60;94444.41;5021174;28;20691;-76
2022/04/11 02:57:36;;;;;;;2.75;1.80;;;;;;;3.82;78.47;94451.66;5024556;28;20326;-75
2022/04/11 03:00:05;;;;;;;2.53;2.17;;;;;;;3.79;79.04;94454.91;5011536;28;20546;-76
2022/04/11 03:02:32;;;;;;;2.22;1.65;;;;;;;3.78;79.31;94456.78;5024499;28;20208;-75
2022/04/11 03:05:00;;;;;;;3.03;2.17;;;;;;;3.83;79.65;94461.25;5011572;28;20211;-78
2022/04/11 03:07:28;;;;;;;3.40;2.35;;;;;;;3.90;80.02;94453.66;5024579;28;20624;-76
2022/04/11 03:09:54;;;;;;;2.65;2.13;;;;;;;3.82;80.45;94459.69;5022333;28;20244;-76
2022/04/11 03:12:21;;;;;;;1.95;1.77;;;;;;;3.60;81.30;94464.78;5012005;28;20201;-77
2022/04/11 03:14:49;;;;;;;3.15;1.63;;;;;;;3.57;82.34;94472.31;5022074;28;20200;-76
2022/04/11 03:17:16;;;;;;;8.35;3.22;;;;;;;3.50;82.60;94471.88;5017149;28;20247;-76
2022/04/11 03:19:43;;;;;;;3.30;2.45;;;;;;;3.65;83.08;94480.81;5019214;28;20200;-76
2022/04/11 03:22:12;;;;;;;3.75;2.13;;;;;;;3.67;83.58;94481.31;5024158;28;20205;-75
2022/04/11 03:24:39;;;;;;;2.75;2.08;;;;;;;3.55;83.77;94485.19;5011661;28;20595;-75
2022/04/11 03:27:06;;;;;;;3.25;2.40;;;;;;;3.55;83.18;94473.72;5023814;28;20204;-74
2022/04/11 03:29:33;;;;;;;5.03;2.42;;;;;;;3.54;82.97;94480.94;5023248;28;20204;-76
2022/04/11 03:32:00;;;;;;;2.92;1.85;;;;;;;3.54;83.22;94488.97;5016783;28;20699;-76
2022/04/11 03:34:27;;;;;;;5.60;2.60;;;;;;;3.58;83.89;94489.19;5018118;28;20205;-75
2022/04/11 03:36:54;;;;;;;5.45;2.25;;;;;;;3.50;84.07;94498.66;5023731;28;20216;-76
2022/04/11 03:39:22;;;;;;;8.65;2.97;;;;;;;3.53;83.57;94497.28;5024149;28;20244;-75
2022/04/11 03:41:49;;;;;;;3.83;2.88;;;;;;;3.53;83.73;94498.09;5023237;28;20668;-77
2022/04/11 03:44:16;;;;;;;4.85;2.88;;;;;;;3.53;83.03;94503.44;5022982;28;20232;-76
2022/04/11 03:46:42;;;;;;;6.90;2.90;;;;;;;3.56;82.44;94505.53;5018471;28;20204;-76
2022/04/11 03:49:10;;;;;;;5.57;3.50;;;;;;;3.62;82.23;94514.31;5021088;28;20699;-75
2022/04/11 03:51:36;;;;;;;5.90;3.08;;;;;;;3.72;81.50;94511.50;5026777;28;20698;-75
2022/04/11 03:54:04;;;;;;;8.05;4.40;;;;;;;3.70;81.78;94513.66;5027246;28;20431;-77
2022/04/11 03:56:32;;;;;;;6.93;2.83;;;;;;;3.65;80.68;94504.91;5022642;28;20250;-78
2022/04/11 03:58:59;;;;;;;5.05;2.75;;;;;;;3.72;79.99;94510.69;5020598;28;20240;-76
2022/04/11 04:01:25;;;;;;;3.88;2.17;;;;;;;3.75;79.53;94515.50;5025566;28;20622;-74
2022/04/11 04:03:53;;;;;;;5.97;2.38;;;;;;;3.73;79.67;94523.00;5027695;28;20823;-75
2022/04/11 04:06:20;;;;;;;4.00;2.30;;;;;;;3.80;79.26;94518.91;5023188;28;20270;-75
2022/04/11 04:08:47;;;;;;;2.55;2.00;;;;;;;3.82;78.31;94526.66;5020846;28;20208;-75
2022/04/11 04:11:13;;;;;;;3.40;1.80;;;;;;;3.81;78.42;94515.16;5025234;28;20197;-75
2022/04/11 04:13:43;;;;;;;2.85;1.65;;;;;;;3.79;78.16;94527.22;5027179;28;20266;-76
2022/04/11 04:16:09;;;;;;;7.85;2.95;;;;;;;3.78;78.21;94531.78;5023070;28;20224;-76
2022/04/11 04:18:36;;;;;;;6.13;2.40;;;;;;;3.76;77.11;94533.16;5020379;28;20243;-74
2022/04/11 04:21:03;;;;;;;3.50;2.17;;;;;;;3.78;77.05;94541.72;5024262;28;20201;-75
2022/04/11 04:23:30;;;;;;;5.03;2.25;;;;;;;3.77;76.47;94540.13;5029188;28;20197;-75
2022/04/11 04:25:57;;;;;;;4.88;2.47;;;;;;;3.81;76.58;94549.19;5033314;28;20254;-76
2022/04/11 04:28:24;;;;;;;6.00;3.17;;;;;;;3.88;76.23;94552.28;5032635;28;20232;-76
2022/04/11 04:30:52;;;;;;;6.60;2.65;;;;;;;3.81;76.84;94551.84;5032514;28;20228;-78
2022/04/11 04:33:19;;;;;;;1.67;1.52;;;;;;;3.85;76.83;94558.22;5032966;28;20211;-76
2022/04/11 04:35:46;;;;;;;8.85;3.03;;;;;;;3.86;76.38;94557.94;5033442;28;20653;-75
2022/04/11 04:38:13;;;;;;;7.22;2.22;;;;;;;3.89;77.21;94565.41;5033316;28;20236;-77
2022/04/11 04:40:40;;;;;;;4.97;2.55;;;;;;;4.07;79.20;94571.88;5030171;28;21324;-78
2022/04/11 04:43:08;;;;;;;6.45;3.60;;;;;;;4.75;77.51;94570.66;5021704;28;20267;-77
2022/04/11 04:45:36;;;;;;;1.17;0.93;;;;;;;4.44;75.12;94575.66;5024185;28;20715;-77
2022/04/11 04:48:05;;;;;;;5.15;2.92;;;;;;;5.27;81.25;94585.63;5033098;28;20208;-78
2022/04/11 04:50:32;;;;;;;7.88;3.55;;;;;;;4.96;78.72;94588.81;5028741;28;20200;-78
2022/04/11 04:52:59;;;;;;;5.65;2.95;;;;;;;5.10;73.98;94585.38;5025715;28;20200;-78
2022/04/11 04:55:26;;;;;;;7.93;3.47;;;;;;;5.16;78.69;94594.97;5016076;28;20580;-77
2022/04/11 04:57:52;;;;;;;4.15;3.25;;;;;;;4.73;73.20;94595.09;5022767;28;20193;-80
2022/04/11 05:00:19;;;;;;;3.10;2.13;;;;;;;4.62;72.80;94590.97;5026513;28;20610;-82
2022/04/11 05:02:46;;;;;;;5.82;2.90;;;;;;;4.40;73.50;94606.81;5019706;28;20207;-84
2022/04/11 05:05:14;;;;;;;2.80;2.28;;;;;;;4.26;74.49;94604.06;5027299;28;20200;-83
2022/04/11 05:07:41;;;;;;;3.75;2.90;;;;;;;4.17;74.36;94613.84;5024114;28;20255;-81
2022/04/11 05:10:09;;;;;;;6.55;2.78;;;;;;;4.16;74.51;94604.19;5013289;28;20275;-79
2022/04/11 05:12:40;;;;;;;6.97;2.30;;;;;;;4.19;74.28;94620.50;5019614;28;20324;-82
2022/04/11 05:15:08;;;;;;;2.50;2.22;;;;;;;4.28;74.39;94618.78;5032343;28;20616;-79
2022/04/11 05:17:35;;;;;;;4.10;2.80;;;;;;;4.28;72.97;94620.66;5012204;28;20736;-81
2022/04/11 05:20:02;;;;;;;5.47;2.95;;;;;;;4.31;74.06;94635.38;5012527;28;20259;-79
2022/04/11 05:22:30;;;;;;;6.03;2.05;;;;;;;4.43;73.71;94635.75;5019100;28;20205;-80
2022/04/11 05:24:57;;;;;;;4.07;2.72;;;;;;;4.34;73.51;94635.59;5018301;28;20209;-79
2022/04/11 05:27:24;;;;;;;4.75;2.40;;;;;;;4.29;73.45;94628.41;5012046;28;20213;-79
2022/04/11 05:29:51;;;;;;;3.58;2.33;;;;;;;4.37;73.20;94639.59;5011775;28;20316;-79
2022/04/11 05:32:17;;;;;;;9.07;3.25;;;;;;;4.44;73.25;94630.09;5011708;28;20209;-78
2022/04/11 05:34:44;;;;;;;5.93;3.70;;;;;;;4.43;73.43;94633.06;5011419;28;20205;-84
2022/04/11 05:37:12;;;;;;;5.30;3.22;;;;;;;4.37;73.97;94634.25;5011743;28;20220;-77
2022/04/11 05:39:41;;;;;;;3.47;2.50;;;;;;;4.42;72.47;94636.84;5014013;28;20272;-77
2022/04/11 05:42:08;;;;;;;4.97;2.38;;;;;;;4.48;71.86;94644.53;5023657;28;20201;-76
2022/04/11 05:44:35;;;;;;;6.20;3.00;;;;;;;4.53;72.74;94644.44;5026562;28;20244;-77
2022/04/11 05:47:02;;;;;;;5.85;2.80;;;;;;;4.60;71.94;94649.47;5028327;28;20207;-79
2022/04/11 05:49:28;;;;;;;3.92;2.67;;;;;;;4.54;71.34;94646.06;5018850;28;20207;-79
2022/04/11 05:51:55;;;;;;;3.80;2.58;;;;;;;4.64;71.68;94648.63;5021493;28;20517;-77
2022/04/11 05:54:22;;;;;;;5.55;2.72;;;;;;;4.49;70.84;94648.03;5013514;28;20208;-79
2022/04/11 05:56:50;;;;;;;4.10;2.83;;;;;;;4.31;71.00;94651.47;5021041;28;20560;-75
2022/04/11 05:59:17;;;;;;;3.78;2.38;;;;;;;4.29;71.02;94662.47;5015315;28;20232;-77
2022/04/11 06:01:44;;;;;;;2.92;2.20;;;;;;;4.37;71.55;94666.41;5030147;28;20212;-78
2022/04/11 06:04:11;;;;;;;6.13;2.08;;;;;;;4.39;71.59;94667.69;5031690;28;20270;-74
2022/04/11 06:06:38;;;;;;;5.07;2.60;;;;;;;4.42;71.18;94663.66;5031356;28;20555;-79
2022/04/11 06:09:05;;;;;;;3.53;2.17;;;;;;;4.29;70.66;94665.16;5031572;28;20223;-75
2022/04/11 06:11:32;;;;;;;4.40;2.67;;;;;;;4.37;70.81;94677.94;5030700;28;20211;-77
2022/04/11 06:14:00;;;;;;;2.95;2.20;;;;;;;4.47;71.49;94666.28;5031340;28;20205;-76
2022/04/11 06:16:27;;;;;;;13.60;2.72;;;;;;;4.46;70.68;94670.03;5030663;28;20204;-77
2022/04/11 06:18:54;;;;;;;7.50;3.20;;;;;;;4.36;70.57;94664.81;5031050;28;20235;-73
2022/04/11 06:21:21;;;;;;;6.78;2.83;;;;;;;4.43;70.77;94670.63;5030763;28;20200;-76
2022/04/11 06:23:47;;;;;;;3.00;2.22;;;;;;;4.48;71.03;94678.59;5026189;28;20201;-75
2022/04/11 06:26:14;;;;;;;4.50;2.85;;;;;;;4.77;70.89;94676.59;5011463;28;20212;-76
2022/04/11 06:28:42;;;;;;;8.75;3.72;;;;;;;4.81;71.33;94680.28;5011121;28;20205;-75
2022/04/11 06:31:11;;;;;;;2.45;1.67;;;;;;;4.84;70.27;94686.97;5010555;28;20612;-75
2022/04/11 06:33:38;;;;;;;3.10;2.45;;;;;;;4.78;69.85;94680.88;5008829;28;20732;-77
2022/04/11 06:36:06;;;;;;;5.82;3.33;;;;;;;4.93;69.68;94680.66;5009313;28;20209;-76
2022/04/11 06:38:33;;;;;;;2.72;1.80;;;;;;;5.15;68.84;94671.22;5010783;28;20677;-75
2022/04/11 06:41:00;;;;;;;7.38;3.38;;;;;;;5.17;69.25;94685.16;5011009;28;20216;-76
2022/04/11 06:43:27;;;;;;;4.30;2.85;;;;;;;5.17;67.49;94679.78;5011187;28;20240;-74
2022/04/11 06:45:54;;;;;;;6.45;2.63;;;;;;;5.05;67.75;94682.13;5022821;28;20236;-74
2022/04/11 06:48:22;;;;;;;4.38;2.75;;;;;;;5.25;67.74;94697.91;5010761;28;20216;-75
2022/04/11 06:50:50;;;;;;;5.43;2.95;;;;;;;5.63;67.28;94691.38;5010105;28;20205;-76
2022/04/11 06:53:17;;;;;;;8.38;2.53;;;;;;;5.86;65.54;94686.16;5011199;28;20227;-76
2022/04/11 06:55:44;;;;;;;5.45;2.97;;;;;;;5.85;64.84;94685.34;5010600;28;20205;-76
2022/04/11 06:58:11;;;;;;;6.00;3.22;;;;;;;6.00;64.29;94697.75;5010564;28;20236;-74
2022/04/11 07:00:38;;;;;;;5.07;2.35;;;;;;;5.92;64.30;94701.13;5010214;28;20711;-75
2022/04/11 07:03:05;;;;;;;3.65;2.42;;;;;;;6.27;63.14;94697.78;5010260;28;20216;-72
2022/04/11 07:05:33;;;;;;;4.88;2.80;;;;;;;6.51;62.33;94691.41;5010297;28;20224;-76
2022/04/11 07:08:00;;;;;;;3.90;2.63;;;;;;;7.59;59.86;94700.28;5010397;28;20211;-76
2022/04/11 07:10:27;;;;;;;5.35;2.42;;;;;;;7.88;57.83;94685.56;5013277;28;20205;-73
2022/04/11 07:12:53;;;;;;;5.75;2.67;;;;;;;8.26;59.22;94686.69;5030375;28;20219;-75
2022/04/11 07:15:20;;;;;;;4.95;2.50;;;;;;;8.57;56.45;94685.91;5014290;28;20212;-72
2022/04/11 07:17:47;;;;;;;4.00;3.08;;;;;;;8.50;55.88;94692.53;5009735;28;20271;-75
2022/04/11 07:20:14;;;;;;;4.03;2.95;;;;;;;8.66;56.19;94684.81;5010680;28;20679;-72
2022/04/11 07:22:43;;;;;;;4.57;2.92;;;;;;;7.59;58.55;94688.72;5022859;28;20231;-74
2022/04/11 07:25:10;;;;;;;6.47;2.03;;;;;;;7.58;56.75;94687.91;5020759;28;20296;-73
2022/04/11 07:27:37;;;;;;;4.50;3.47;;;;;;;7.30;57.80;94681.03;5017042;28;20262;-76
2022/04/11 07:30:05;;;;;;;4.57;2.90;;;;;;;7.08;58.04;94701.47;5016685;28;20695;-75
2022/04/11 07:32:32;;;;;;;3.42;2.60;;;;;;;7.61;57.85;94690.00;5016870;28;20201;-73
2022/04/11 07:34:59;;;;;;;3.55;2.65;;;;;;;7.46;56.76;94695.75;5032864;28;20204;-74
2022/04/11 07:37:28;;;;;;;4.47;2.40;;;;;;;7.91;57.08;94701.13;5036707;28;20219;-77
2022/04/11 07:39:56;;;;;;;3.42;2.60;;;;;;;7.67;56.97;94707.63;5036630;28;20275;-74
2022/04/11 07:42:23;;;;;;;7.70;2.50;;;;;;;7.89;58.02;94708.75;5035787;28;20223;-77
2022/04/11 07:44:49;;;;;;;4.03;2.67;;;;;;;8.14;55.86;94699.97;5023370;28;20323;-76
2022/04/11 07:47:16;;;;;;;5.60;2.03;;;;;;;8.00;56.63;94707.38;5024064;28;20778;-76
2022/04/11 07:49:43;;;;;;;2.83;2.22;;;;;;;8.03;55.61;94709.44;5016191;28;20219;-76
2022/04/11 07:52:10;;;;;;;3.08;2.65;;;;;;;8.58;56.05;94715.28;5015743;28;20208;-74
2022/04/11 07:54:37;;;;;;;3.20;2.88;;;;;;;8.65;55.77;94717.50;5015963;28;20212;-74
2022/04/11 07:57:07;;;;;;;3.85;2.85;;;;;;;8.59;55.19;94713.38;5015705;28;20212;-75
2022/04/11 07:59:34;;;;;;;6.10;2.67;;;;;;;8.39;55.57;94729.03;5035246;28;20252;-74
2022/04/11 08:02:01;;;;;;;4.18;1.55;;;;;;;8.46;54.60;94728.59;5036131;28;20683;-74
2022/04/11 08:04:28;;;;;;;10.43;3.30;;;;;;;8.33;55.13;94729.47;5023419;28;20283;-76
2022/04/11 08:06:55;;;;;;;6.95;2.80;;;;;;;8.44;55.54;94726.19;5035052;28;20204;-75
2022/04/11 08:09:22;;;;;;;8.00;2.40;;;;;;;8.87;54.72;94739.06;5035722;28;20204;-75
2022/04/11 08:11:49;;;;;;;7.32;2.85;;;;;;;8.64;55.90;94735.63;5035511;28;20216;-74
2022/04/11 08:14:17;;;;;;;5.55;2.78;;;;;;;8.57;54.71;94746.09;5036103;28;20659;-73
2022/04/11 08:16:44;;;;;;;3.45;2.10;;;;;;;7.97;55.20;94749.22;5036321;28;20208;-72
2022/04/11 08:19:11;;;;;;;7.07;3.53;;;;;;;7.99;55.42;94747.03;5035884;28;20212;-75
2022/04/11 08:21:38;;;;;;;3.28;2.15;;;;;;;7.71;56.45;94745.56;5035317;28;20204;-75
2022/04/11 08:24:06;;;;;;;7.78;2.47;;;;;;;7.99;55.01;94747.03;5028760;28;20201;-74
2022/04/11 08:26:33;;;;;;;7.57;3.03;;;;;;;8.73;55.26;94746.47;5016004;28;20623;-73
2022/04/11 08:29:00;;;;;;;3.25;2.38;;;;;;;8.35;54.53;94748.84;5015718;28;20708;-74
2022/04/11 08:31:28;;;;;;;5.45;2.55;;;;;;;8.21;54.17;94732.69;5016618;28;20664;-73
2022/04/11 08:33:55;;;;;;;4.32;2.88;;;;;;;8.05;54.57;94745.00;5034384;28;20255;-73
2022/04/11 08:36:21;;;;;;;3.15;2.55;;;;;;;8.53;55.04;94751.31;5032600;28;20211;-70
2022/04/11 08:38:50;;;;;;;4.47;2.50;;;;;;;8.60;52.84;94750.09;5032780;28;20564;-74
2022/04/11 08:41:18;;;;;;;4.13;2.55;;;;;;;8.21;54.33;94767.78;5032513;28;20224;-74
2022/04/11 08:43:45;;;;;;;6.28;3.13;;;;;;;8.52;54.23;94760.50;5032480;28;20262;-74
2022/04/11 08:46:16;;;;;;;4.15;2.45;;;;;;;8.71;53.00;94762.19;5029897;28;20328;-77
2022/04/11 08:48:44;;;;;;;2.78;2.22;;;;;;;8.62;52.47;94747.84;5012952;28;20201;-75
2022/04/11 08:51:11;;;;;;;2.83;2.28;;;;;;;8.64;53.74;94759.13;5012531;28;20563;-75
2022/04/11 08:53:38;;;;;;;3.53;2.70;;;;;;;8.72;53.27;94771.88;5013098;28;20216;-78
2022/04/11 08:56:05;;;;;;;4.30;2.58;;;;;;;8.26;52.90;94762.25;5012503;28;20614;-72
2022/04/11 08:58:32;;;;;;;5.50;2.72;;;;;;;8.46;54.94;94767.19;5012523;28;20204;-75
2022/04/11 09:01:00;;;;;;;4.82;2.45;;;;;;;8.20;54.46;94768.88;5032082;28;20232;-74
2022/04/11 09:03:27;;;;;;;4.43;2.80;;;;;;;7.55;55.53;94764.00;5032825;28;20258;-73
2022/04/11 09:06:06;;;;;;;2.83;2.28;;;;;;;7.76;54.62;94759.75;5032746;28;20221;-72
2022/04/11 09:08:41;;;;;;;2.35;2.05;;;;;;;8.02;54.25;94761.81;5031973;28;20208;-76
2022/04/11 09:11:08;;;;;;;2.42;1.90;;;;;;;8.35;53.87;94770.44;5032435;28;20246;-76
2022/04/11 09:13:50;;;;;;;4.05;3.03;;;;;;;7.63;54.59;94767.88;5032048;28;20250;-73
2022/04/11 09:16:17;;;;;;;6.70;2.90;;;;;;;7.73;53.48;94783.81;5032493;28;20231;-71
2022/04/11 09:18:48;;;;;;;4.20;2.38;;;;;;;7.51;54.21;94776.50;5032472;28;20219;-76
2022/04/11 09:21:18;;;;;;;4.38;2.58;;;;;;;7.57;54.96;94767.19;5020806;28;20232;-77
2022/04/11 09:23:46;;;;;;;4.55;2.35;;;;;;;7.53;54.69;94779.66;5016704;28;20223;-75
2022/04/11 09:26:18;;;;;;;4.10;2.60;;;;;;;7.39;54.40;94773.53;5032063;28;20208;-76
2022/04/11 09:28:45;;;;;;;3.78;2.35;;;;;;;7.42;54.84;94789.88;5012458;28;20225;-75
2022/04/11 09:31:12;;;;;;;2.92;2.15;;;;;;;7.42;53.34;94775.63;5012183;28;20204;-74
2022/04/11 09:33:39;;;;;;;2.22;2.03;;;;;;;7.58;54.14;94779.56;5025533;28;20209;-76
2022/04/11 09:36:07;;;;;;;2.63;2.17;;;;;;;7.57;54.06;94777.97;5012536;28;20538;-72
2022/04/11 09:38:38;;;;;;;2.40;1.90;;;;;;;7.55;54.63;94772.09;5014202;28;20311;-76
2022/04/11 09:41:06;;;;;;;6.70;2.90;;;;;;;7.72;53.78;94769.53;5027727;28;20316;-74
2022/04/11 09:43:34;;;;;;;2.50;2.08;;;;;;;7.58;54.62;94779.56;5031316;28;20247;-73
2022/04/11 09:46:03;;;;;;;5.10;2.95;;;;;;;8.01;52.78;94776.41;5029917;28;20656;-71
2022/04/11 09:48:32;;;;;;;2.78;2.30;;;;;;;8.35;52.20;94760.44;5012189;28;20620;-78
2022/04/11 09:51:00;;;;;;;2.20;1.63;;;;;;;8.27;51.21;94758.47;5026885;28;20598;-76
2022/04/11 09:53:31;;;;;;;3.42;2.30;;;;;;;8.29;51.63;94774.34;5031701;28;20207;-75
2022/04/11 09:56:03;;;;;;;4.40;2.92;;;;;;;7.85;51.36;94762.47;5031834;28;20235;-74
2022/04/11 09:58:31;;;;;;;3.55;2.17;;;;;;;8.16;51.11;94762.53;5031115;28;20204;-75
2022/04/11 10:00:59;;;;;;;4.75;3.03;;;;;;;8.68;50.23;94763.59;5031039;28;20591;-73
2022/04/11 10:03:27;;;;;;;3.50;2.28;;;;;;;8.77;49.34;94744.72;5031530;28;20212;-74
2022/04/11 10:05:54;;;;;;;5.07;2.35;;;;;;;8.92;49.77;94752.41;5031435;28;20227;-76
2022/04/11 10:08:25;;;;;;;2.65;1.88;;;;;;;9.00;50.13;94759.75;5031394;28;20247;-77
2022/04/11 10:10:52;;;;;;;3.45;2.17;;;;;;;8.84;50.02;94758.56;5030979;28;20219;-74
2022/04/11 10:13:20;;;;;;;4.80;2.47;;;;;;;9.26;49.25;94752.47;5017850;28;20213;-74
2022/04/11 10:15:49;;;;;;;4.60;2.72;;;;;;;9.15;49.92;94756.59;5011803;28;20227;-71
2022/04/11 10:18:25;;;;;;;4.43;2.40;;;;;;;9.35;48.36;94743.56;5011596;28;20359;-77
2022/04/11 10:20:56;;;;;;;3.90;2.85;;;;;;;9.38;49.03;94738.34;5011504;28;20224;-76
2022/04/11 10:23:30;;;;;;;2.63;2.10;;;;;;;9.12;49.73;94749.13;5012006;28;20375;-73
2022/04/11 10:25:59;;;;;;;2.97;2.28;;;;;;;8.90;50.94;94749.22;5031426;28;20360;-78
2022/04/11 10:28:29;;;;;;;2.78;2.20;;;;;;;8.42;50.84;94752.69;5029759;28;20240;-74
2022/04/11 10:31:10;;;;;;;5.18;2.88;;;;;;;8.45;51.55;94756.69;5019595;28;20193;-77
2022/04/11 10:33:41;;;;;;;6.63;2.53;;;;;;;8.42;50.69;94760.00;5011568;28;20205;-77
2022/04/11 10:36:30;;;;;;;6.88;2.10;;;;;;;8.83;49.36;94754.28;5025345;28;20291;-78
2022/04/11 10:39:24;;;;;;;4.20;2.20;;;;;;;9.03;50.04;94759.09;5031475;28;20211;-79
2022/04/11 10:42:09;;;;;;;2.67;2.25;;;;;;;9.24;48.54;94752.00;5023766;28;20235;-83
2022/04/11 10:44:39;;;;;;;4.82;2.38;;;;;;;10.19;46.88;94740.38;5026890;28;20228;-75
2022/04/11 10:47:26;;;;;;;3.75;2.28;;;;;;;10.39;46.33;94744.31;5032047;28;20746;-79
2022/04/11 10:50:27;;;;;;;3.03;1.92;;;;;;;10.23;46.10;94746.75;5025067;28;20737;-77
2022/04/11 10:53:08;;;;;;;4.50;2.55;;;;;;;10.11;48.66;94743.88;5003875;28;20213;-80
2022/04/11 10:55:36;;;;;;;2.45;1.80;;;;;;;9.74;47.22;94748.84;5024043;28;20239;-78
2022/04/11 10:58:04;;;;;;;4.10;2.85;;;;;;;9.40;47.28;94751.53;5022426;28;20687;-76
2022/04/11 11:00:34;;;;;;;7.75;4.13;;;;;;;9.58;47.86;94753.13;5024517;28;20722;-78
2022/04/11 11:03:09;;;;;;;2.30;1.55;;;;;;;9.38;46.82;94751.06;5031061;28;20556;-78
2022/04/11 11:05:38;;;;;;;8.80;3.55;;;;;;;9.29;48.59;94755.66;5030388;28;20691;-79
2022/04/11 11:08:28;;;;;;;2.95;2.13;;;;;;;9.20;47.52;94759.13;5029562;28;20211;-73
2022/04/11 11:10:57;;;;;;;3.40;2.53;;;;;;;9.39;48.01;94749.94;5028649;28;20242;-74
2022/04/11 11:13:24;;;;;;;2.20;2.00;;;;;;;9.30;47.07;94757.25;5017957;28;20208;-79
2022/04/11 11:15:53;;;;;;;4.40;2.72;;;;;;;9.09;47.83;94752.44;5019055;28;20205;-81
2022/04/11 11:18:20;;;;;;;5.93;2.75;;;;;;;9.42;47.36;94749.31;5015720;28;20291;-77
2022/04/11 11:20:54;;;;;;;3.83;2.50;;;;;;;9.53;46.83;94756.00;5010253;28;20295;-77
2022/04/11 11:23:31;;;;;;;3.70;2.72;;;;;;;9.60;47.38;94761.72;5010712;28;20367;-73
2022/04/11 11:26:08;;;;;;;3.70;2.60;;;;;;;9.26;47.46;94763.28;5027863;28;20220;-75
2022/04/11 11:28:35;;;;;;;2.25;1.48;;;;;;;9.25;47.00;94761.69;5029999;28;20310;-75
2022/04/11 11:31:04;;;;;;;2.85;1.90;;;;;;;9.57;46.88;94754.25;5029786;28;20558;-76
2022/04/11 11:33:31;;;;;;;3.08;2.00;;;;;;;9.57;45.07;94743.41;5029709;28;20231;-79
2022/04/11 11:35:59;;;;;;;3.33;1.77;;;;;;;9.83;46.08;94744.25;5030070;28;20208;-78
2022/04/11 11:38:29;;;;;;;2.22;1.83;;;;;;;9.43;45.03;94743.56;5024322;28;20572;-77
2022/04/11 11:40:58;;;;;;;4.75;1.80;;;;;;;9.10;46.66;94748.63;5018258;28;20223;-73
2022/04/11 11:43:25;;;;;;;3.33;2.30;;;;;;;8.79;46.09;94764.91;5016918;28;20259;-72
2022/04/11 11:45:53;;;;;;;2.88;2.05;;;;;;;8.64;46.97;94757.22;5016233;28;20236;-71